KBDR/BDR METAR and TAF weather

Enter ICAO airport designator
Station Type Date Time Source
KBDR METAR 2019/12/06 03:52 UTC NOAA

KBDR 060352Z AUTO 27005KT 10SM BKN043 OVC050 03/M06 A3004 RMK AO2 SLP171 T00281056


Station Type Date Time Source
KBDR Decoded METAR 2019/12/06 03:52 UTC NOAA

SIKORSKY MEMORIAL AIRPORT, CT, United States (KBDR) 41-10N 073-08W 7M
Dec 05, 2019 - 10:52 PM EST / 2019.12.06 0352 UTC
Wind: from the W (270 degrees) at 6 MPH (5 KT):0
Visibility: 10 mile(s):0
Sky conditions: overcast
Temperature: 37.0 F (2.8 C)
Dew Point: 21.9 F (-5.6 C)
Relative Humidity: 53%
Pressure (altimeter): 30.04 in. Hg (1017 hPa)
ob: KBDR 060352Z AUTO 27005KT 10SM BKN043 OVC050 03/M06 A3004 RMK AO2 SLP171 T00281056
cycle: 4

Station Type Date Time Source
KBDR TAF 2019/12/06 02:06 UTC NOAA

TAF
AMD KBDR 060203Z 0602/0624 29011KT P6SM SCT050
FM060600 28008KT P6SM FEW250
FM061000 28005KT P6SM SCT250
FM061400 23007KT P6SM BKN100
FM061700 22010KT P6SM FEW050 OVC100
FM061900 22012G20KT P6SM SCT050 OVC080

Example: see airport list